Time;durP1;ratioP1;P1;durP2;ratioP2;P2;SDS_P1;SDS_P2;PMS_P1;PMS_P2;Temp;Humidity;BMP_temperature;BMP_pressure;BME280_temperature;BME280_humidity;BME280_pressure;Samples;Min_cycle;Max_cycle;Signal;HPM_P1;HPM_P2
2022/12/14 00:01:23;;;;;;;48.35;24.15;;;-4.10;99.90;;;;;;5084115;28;20527;-78
2022/12/14 00:03:49;;;;;;;46.78;23.48;;;-4.10;99.90;;;;;;5098426;28;20122;-78
2022/12/14 00:06:21;;;;;;;45.97;24.20;;;-4.10;99.90;;;;;;5090323;28;20032;-78
2022/12/14 00:08:48;;;;;;;49.05;23.50;;;-4.10;99.90;;;;;;5078077;28;20130;-78
2022/12/14 00:11:14;;;;;;;44.38;23.63;;;-4.10;99.90;;;;;;5086183;28;20466;-78
2022/12/14 00:13:41;;;;;;;41.88;22.55;;;-4.10;99.90;;;;;;5114389;28;20405;-78
2022/12/14 00:16:09;;;;;;;42.92;23.67;;;-4.10;99.90;;;;;;5080039;28;20036;-78
2022/12/14 00:18:35;;;;;;;44.72;23.08;;;-4.20;99.90;;;;;;5070126;28;20065;-78
2022/12/14 00:21:09;;;;;;;46.75;24.65;;;-4.20;99.90;;;;;;5085272;28;20039;-78
2022/12/14 00:23:36;;;;;;;47.05;24.77;;;-4.20;99.90;;;;;;5084269;28;20043;-78
2022/12/14 00:26:15;;;;;;;47.78;24.38;;;-4.30;99.90;;;;;;5071917;28;20047;-78
2022/12/14 00:28:41;;;;;;;44.92;23.45;;;-4.30;99.90;;;;;;5078566;28;20084;-78
2022/12/14 00:31:07;;;;;;;46.05;23.08;;;-4.30;99.90;;;;;;5085836;28;20494;-78
2022/12/14 00:33:34;;;;;;;44.25;24.05;;;-4.40;99.90;;;;;;5113530;28;20076;-78
2022/12/14 00:36:00;;;;;;;46.72;25.58;;;-4.40;99.90;;;;;;5097438;28;20036;-78
2022/12/14 00:38:26;;;;;;;46.38;22.75;;;-4.40;99.90;;;;;;5079142;28;20131;-78
2022/12/14 00:40:53;;;;;;;48.85;24.70;;;-4.40;99.90;;;;;;5103861;28;20063;-78
2022/12/14 00:43:18;;;;;;;46.60;23.77;;;-4.40;99.90;;;;;;5112346;28;20035;-78
2022/12/14 00:45:44;;;;;;;44.20;23.02;;;-4.50;99.90;;;;;;5086382;28;20043;-78
2022/12/14 00:48:11;;;;;;;43.13;22.08;;;-4.50;99.90;;;;;;5092034;28;20460;-78
2022/12/14 00:50:37;;;;;;;43.78;22.70;;;-4.50;99.90;;;;;;5080413;28;20036;-78
2022/12/14 00:53:02;;;;;;;46.45;22.50;;;-4.50;99.90;;;;;;5080374;28;20196;-79
2022/12/14 00:55:28;;;;;;;40.83;21.50;;;-4.50;99.90;;;;;;5070104;28;20037;-78
2022/12/14 00:57:54;;;;;;;43.03;22.30;;;-4.50;99.90;;;;;;5070764;28;20032;-78
2022/12/14 01:00:22;;;;;;;40.97;22.40;;;-4.50;99.90;;;;;;5091169;28;20402;-78
2022/12/14 01:02:48;;;;;;;39.60;20.67;;;-4.40;99.90;;;;;;5100707;28;20486;-78
2022/12/14 01:05:13;;;;;;;43.05;22.30;;;-4.40;99.90;;;;;;5086717;28;20097;-78
2022/12/14 01:07:39;;;;;;;38.97;21.67;;;-4.50;99.90;;;;;;5071790;28;20405;-78
2022/12/14 01:10:05;;;;;;;42.50;21.88;;;-4.50;99.90;;;;;;5091123;28;20428;-78
2022/12/14 01:12:31;;;;;;;43.67;22.40;;;-4.50;99.90;;;;;;5100997;28;20410;-78
2022/12/14 01:14:56;;;;;;;41.20;21.83;;;-4.60;99.90;;;;;;5073588;28;20036;-78
2022/12/14 01:17:22;;;;;;;46.00;22.80;;;-4.60;99.90;;;;;;5065618;28;20132;-78
2022/12/14 01:19:47;;;;;;;44.42;21.52;;;-4.60;99.90;;;;;;5076091;28;20035;-78
2022/12/14 01:22:13;;;;;;;43.70;22.23;;;-4.70;99.90;;;;;;5075859;28;20063;-78
2022/12/14 01:24:38;;;;;;;41.78;21.00;;;-4.70;99.90;;;;;;5092862;28;20040;-78
2022/12/14 01:27:04;;;;;;;40.10;21.73;;;-4.70;99.90;;;;;;5070473;28;20036;-79
2022/12/14 01:29:30;;;;;;;40.15;20.65;;;-4.80;99.90;;;;;;5084956;22;20417;-75
2022/12/14 01:31:56;;;;;;;43.22;21.35;;;-4.80;99.90;;;;;;5041288;28;20057;-74
2022/12/14 01:34:21;;;;;;;42.72;20.65;;;-4.90;99.90;;;;;;5041067;28;20047;-75
2022/12/14 01:36:47;;;;;;;39.47;19.35;;;-4.90;99.90;;;;;;5040120;28;20045;-74
2022/12/14 01:39:15;;;;;;;41.55;21.25;;;-5.00;99.90;;;;;;5036339;28;20041;-75
2022/12/14 01:41:48;;;;;;;37.28;19.20;;;-5.00;99.90;;;;;;5054486;28;20047;-75
2022/12/14 01:44:13;;;;;;;41.47;20.92;;;-5.00;99.90;;;;;;5072761;28;20086;-75
2022/12/14 01:47:11;;;;;;;43.05;21.10;;;-4.90;99.90;;;;;;5073335;28;20444;-75
2022/12/14 01:49:47;;;;;;;42.30;21.48;;;-5.00;99.90;;;;;;5058398;28;20510;-75
2022/12/14 01:52:25;;;;;;;42.35;19.83;;;-5.00;99.90;;;;;;5053183;28;20131;-75
2022/12/14 01:55:03;;;;;;;41.83;21.98;;;-5.00;99.90;;;;;;5052982;28;20094;-75
2022/12/14 01:57:52;;;;;;;39.63;20.17;;;-5.00;99.90;;;;;;5050915;28;20106;-75
2022/12/14 02:00:18;;;;;;;39.67;20.08;;;-5.00;99.90;;;;;;5040319;28;20563;-75
2022/12/14 02:02:56;;;;;;;41.58;22.27;;;-5.10;99.90;;;;;;5094405;28;20036;-75
2022/12/14 02:05:23;;;;;;;39.47;20.38;;;-5.20;99.90;;;;;;5050679;28;20047;-75
2022/12/14 02:07:52;;;;;;;44.83;21.67;;;-5.30;99.90;;;;;;5055355;28;20040;-75
2022/12/14 02:10:20;;;;;;;45.33;21.42;;;-5.30;99.90;;;;;;5065108;28;20040;-75
2022/12/14 02:12:54;;;;;;;40.33;20.23;;;-5.40;99.90;;;;;;5072609;28;20044;-75
2022/12/14 02:15:20;;;;;;;38.00;20.95;;;-5.50;99.90;;;;;;5062927;28;20041;-75
2022/12/14 02:17:47;;;;;;;37.97;21.63;;;-5.60;99.90;;;;;;5052103;28;20036;-75
2022/12/14 02:20:14;;;;;;;41.97;20.23;;;-5.60;99.90;;;;;;5063772;28;20100;-75
2022/12/14 02:23:05;;;;;;;36.55;19.27;;;-5.70;99.90;;;;;;5058492;28;20068;-76
2022/12/14 02:26:06;;;;;;;38.67;20.52;;;-5.70;99.90;;;;;;5056186;28;20045;-75
2022/12/14 02:29:00;;;;;;;40.20;20.25;;;-5.70;99.90;;;;;;5055927;28;20374;-75
2022/12/14 02:31:45;;;;;;;44.72;21.30;;;-5.80;99.90;;;;;;5059256;28;20047;-75
2022/12/14 02:34:40;;;;;;;47.65;23.27;;;-5.80;99.90;;;;;;5056237;28;20443;-75
2022/12/14 02:37:28;;;;;;;38.25;19.92;;;-5.90;99.90;;;;;;5055344;28;20079;-75
2022/12/14 02:40:12;;;;;;;38.55;20.23;;;-6.00;99.90;;;;;;5064955;28;20314;-75
2022/12/14 02:42:50;;;;;;;39.45;21.48;;;-6.00;99.90;;;;;;5056200;28;20058;-75
2022/12/14 02:45:39;;;;;;;43.60;20.48;;;-6.10;99.90;;;;;;5039763;28;20076;-75
2022/12/14 02:48:19;;;;;;;44.20;21.15;;;-6.10;99.90;;;;;;5038442;28;20139;-75
2022/12/14 02:51:00;;;;;;;42.00;21.10;;;-6.20;99.90;;;;;;5092051;28;20039;-75
2022/12/14 02:53:49;;;;;;;33.30;19.65;;;-6.20;99.90;;;;;;5070091;28;20041;-75
2022/12/14 02:56:20;;;;;;;40.83;19.95;;;-6.30;99.90;;;;;;5042477;28;20146;-75
2022/12/14 02:58:49;;;;;;;40.20;20.60;;;-6.30;99.90;;;;;;5066419;28;20063;-75
2022/12/14 03:01:20;;;;;;;38.20;20.05;;;-6.40;99.90;;;;;;5062322;28;20043;-75
2022/12/14 03:03:46;;;;;;;37.88;19.48;;;-6.50;99.90;;;;;;5076342;28;20035;-75
2022/12/14 03:06:24;;;;;;;39.83;19.00;;;-6.50;99.90;;;;;;5062656;28;20048;-75
2022/12/14 03:09:11;;;;;;;34.85;18.50;;;-6.60;99.90;;;;;;5064603;28;20173;-75
2022/12/14 03:12:02;;;;;;;43.22;18.73;;;-6.60;99.90;;;;;;5055808;28;20121;-75
2022/12/14 03:14:34;;;;;;;36.08;18.58;;;-6.60;99.90;;;;;;5055897;28;20044;-75
2022/12/14 03:17:06;;;;;;;;;;;-6.60;99.90;;;;;;5054192;28;20052;-75
2022/12/14 03:19:43;;;;;;;36.30;18.77;;;-6.70;99.90;;;;;;5054399;28;19942;-75
2022/12/14 03:22:38;;;;;;;39.97;21.77;;;-6.70;99.90;;;;;;5077335;28;20039;-75
2022/12/14 03:25:15;;;;;;;37.38;19.08;;;-6.70;99.90;;;;;;5061312;28;20048;-75
2022/12/14 03:28:00;;;;;;;41.22;20.08;;;-6.80;99.90;;;;;;5056714;28;20123;-75
2022/12/14 03:30:28;;;;;;;41.40;20.00;;;-6.70;99.90;;;;;;5077296;28;20040;-75
2022/12/14 03:33:01;;;;;;;40.35;18.80;;;-6.70;99.90;;;;;;5074850;28;20040;-75
2022/12/14 03:35:41;;;;;;;36.85;19.90;;;-6.80;99.90;;;;;;5070363;28;20448;-75
2022/12/14 03:38:32;;;;;;;35.08;19.35;;;-6.80;99.90;;;;;;5046314;28;20063;-75
2022/12/14 03:41:11;;;;;;;35.53;17.27;;;-6.80;99.90;;;;;;5038562;28;20123;-75
2022/12/14 03:43:44;;;;;;;36.30;17.63;;;-6.90;99.90;;;;;;5056965;28;20047;-75
2022/12/14 03:46:31;;;;;;;34.10;17.75;;;-7.00;99.90;;;;;;5049356;28;20320;-75
2022/12/14 03:49:11;;;;;;;36.55;18.95;;;-7.00;99.90;;;;;;5056709;28;20040;-75
2022/12/14 03:52:01;;;;;;;35.83;18.90;;;-7.10;99.90;;;;;;5036773;28;20044;-75
2022/12/14 03:54:45;;;;;;;46.35;21.45;;;-7.10;99.90;;;;;;5053302;28;20102;-75
2022/12/14 03:57:19;;;;;;;40.28;18.77;;;-7.20;99.90;;;;;;5049908;28;20045;-75
2022/12/14 03:59:58;;;;;;;44.53;19.10;;;-7.20;99.90;;;;;;5073215;28;20040;-75
2022/12/14 04:02:52;;;;;;;41.30;20.23;;;-7.30;99.90;;;;;;5076602;28;20075;-75
2022/12/14 04:05:26;;;;;;;36.55;18.42;;;-7.30;99.90;;;;;;5074970;28;20438;-75
2022/12/14 04:08:01;;;;;;;37.67;19.40;;;-7.40;99.90;;;;;;5054118;28;20487;-75
2022/12/14 04:19:18;;;;;;;41.47;19.23;;;-7.40;99.90;;;;;;5069105;28;20098;-75
2022/12/14 04:21:55;;;;;;;37.65;19.27;;;-7.50;99.90;;;;;;5067163;28;20025;-75
2022/12/14 04:27:45;;;;;;;32.30;18.52;;;-7.60;99.90;;;;;;5105312;28;20036;-75
2022/12/14 04:30:12;;;;;;;38.67;19.30;;;-7.60;99.90;;;;;;5082767;28;20119;-75
2022/12/14 04:32:49;;;;;;;39.35;17.92;;;-7.60;99.90;;;;;;5076730;28;20036;-75
2022/12/14 04:35:30;;;;;;;33.88;17.23;;;-7.60;99.90;;;;;;5073439;28;20098;-75
2022/12/14 04:38:10;;;;;;;32.80;16.13;;;-7.60;99.90;;;;;;5074796;28;20040;-75
2022/12/14 04:40:42;;;;;;;34.47;16.90;;;-7.60;99.90;;;;;;5076901;28;20033;-75
2022/12/14 04:43:16;;;;;;;33.55;18.15;;;-7.60;99.90;;;;;;5076652;28;20071;-76
2022/12/14 04:45:51;;;;;;;32.55;17.73;;;-7.70;99.90;;;;;;5074359;28;20044;-75
2022/12/14 04:48:39;;;;;;;39.72;18.08;;;-7.70;99.90;;;;;;5072807;28;20119;-75
2022/12/14 04:51:34;;;;;;;38.17;18.90;;;-7.70;99.90;;;;;;5073102;28;20044;-75
2022/12/14 04:54:23;;;;;;;37.80;17.33;;;-7.80;99.90;;;;;;5061527;28;20096;-75
2022/12/14 04:57:27;;;;;;;33.85;17.40;;;-7.90;99.90;;;;;;5053482;28;20092;-76
2022/12/14 04:59:54;;;;;;;36.60;16.25;;;-7.90;99.90;;;;;;5031473;28;20039;-75
2022/12/14 05:02:40;;;;;;;37.25;17.85;;;-7.90;99.90;;;;;;5069070;28;20115;-75
2022/12/14 05:05:45;;;;;;;34.33;18.02;;;-8.00;99.90;;;;;;5096033;28;20157;-75
2022/12/14 05:08:24;;;;;;;45.00;19.05;;;-8.00;99.90;;;;;;5072673;28;20062;-76
2022/12/14 05:11:07;;;;;;;39.28;17.48;;;-8.00;99.90;;;;;;5088656;28;20040;-76
2022/12/14 05:13:43;;;;;;;38.08;17.38;;;-8.00;99.90;;;;;;5056853;28;20055;-76
2022/12/14 05:16:10;;;;;;;39.20;17.75;;;-8.10;99.90;;;;;;5071614;28;20068;-76
2022/12/14 05:18:35;;;;;;;29.38;16.67;;;-8.10;99.90;;;;;;5069559;28;20033;-76
2022/12/14 05:21:01;;;;;;;39.00;17.58;;;-8.10;99.90;;;;;;5071667;28;20131;-76
2022/12/14 05:23:27;;;;;;;36.40;17.65;;;-8.10;99.90;;;;;;5073693;28;20119;-76
2022/12/14 05:25:53;;;;;;;35.38;17.23;;;-8.10;99.90;;;;;;5073368;28;20044;-76
2022/12/14 05:28:18;;;;;;;38.40;17.23;;;-8.10;99.90;;;;;;5077724;28;20043;-76
2022/12/14 05:30:44;;;;;;;33.78;16.55;;;-8.10;99.90;;;;;;5090234;28;20035;-76
2022/12/14 05:33:17;;;;;;;37.50;17.30;;;-8.20;99.90;;;;;;5073936;28;20143;-76
2022/12/14 05:35:43;;;;;;;32.55;15.57;;;-8.20;99.90;;;;;;5072532;28;20041;-76
2022/12/14 05:38:08;;;;;;;32.33;15.15;;;-8.20;99.90;;;;;;5075710;28;20036;-76
2022/12/14 05:40:34;;;;;;;33.13;15.15;;;-8.20;99.90;;;;;;5090674;28;20110;-76
2022/12/14 05:43:05;;;;;;;32.88;16.20;;;-8.20;99.90;;;;;;5066389;28;20048;-76
2022/12/14 05:45:31;;;;;;;36.53;17.60;;;-8.20;99.90;;;;;;5048781;28;20051;-76
2022/12/14 05:47:57;;;;;;;36.53;16.50;;;-8.10;99.90;;;;;;5072820;28;20521;-76
2022/12/14 05:50:23;;;;;;;39.67;16.80;;;-8.20;99.90;;;;;;5052080;28;20151;-76
2022/12/14 05:52:50;;;;;;;35.78;17.02;;;-8.20;99.90;;;;;;5055568;28;20045;-76
2022/12/14 05:55:17;;;;;;;34.65;16.15;;;-8.20;99.90;;;;;;5058823;28;20059;-76
2022/12/14 05:57:42;;;;;;;40.05;18.63;;;-8.20;99.90;;;;;;5066016;28;20066;-76
2022/12/14 06:00:09;;;;;;;35.95;16.98;;;-8.20;99.90;;;;;;5069120;28;20036;-76
2022/12/14 06:02:35;;;;;;;40.65;19.33;;;-8.30;99.90;;;;;;5055947;28;20063;-76
2022/12/14 06:05:00;;;;;;;42.88;18.45;;;-8.30;99.90;;;;;;5056324;28;20037;-76
2022/12/14 06:07:26;;;;;;;35.08;17.80;;;-8.30;99.90;;;;;;5055932;28;20082;-76
2022/12/14 06:09:52;;;;;;;37.70;17.90;;;-8.30;99.90;;;;;;5054966;28;20083;-76
2022/12/14 06:12:18;;;;;;;38.80;16.60;;;-8.30;99.90;;;;;;5056151;28;20070;-75
2022/12/14 06:14:44;;;;;;;43.80;18.50;;;-8.40;99.90;;;;;;5050491;28;20044;-76
2022/12/14 06:17:11;;;;;;;30.50;16.90;;;-8.40;99.90;;;;;;5061955;28;20069;-76
2022/12/14 06:19:37;;;;;;;36.53;17.67;;;-8.40;99.90;;;;;;5056919;28;20072;-76
2022/12/14 06:22:03;;;;;;;36.15;17.27;;;-8.40;99.90;;;;;;5053095;28;20073;-76
2022/12/14 06:24:28;;;;;;;34.20;16.63;;;-8.40;99.90;;;;;;5049228;28;20058;-76
2022/12/14 06:26:54;;;;;;;37.15;17.38;;;-8.30;99.90;;;;;;5056143;28;20398;-76
2022/12/14 06:29:20;;;;;;;34.15;15.95;;;-8.40;99.90;;;;;;5055872;28;20047;-76
2022/12/14 06:31:46;;;;;;;36.17;17.67;;;-8.40;99.90;;;;;;5056296;28;20047;-76
2022/12/14 06:34:12;;;;;;;33.70;16.80;;;-8.40;99.90;;;;;;5061127;28;20044;-76
2022/12/14 06:36:40;;;;;;;37.42;18.13;;;-8.40;99.90;;;;;;5066629;28;20106;-76
2022/12/14 06:39:12;;;;;;;32.92;16.75;;;-8.50;99.90;;;;;;5055392;28;20040;-76
2022/12/14 06:41:39;;;;;;;34.92;16.67;;;-8.50;99.90;;;;;;5056716;28;20466;-76
2022/12/14 06:44:14;;;;;;;35.92;17.95;;;-8.50;99.90;;;;;;5061618;28;20036;-76
2022/12/14 06:46:40;;;;;;;32.80;16.27;;;-8.50;99.90;;;;;;5054918;28;20044;-76
2022/12/14 06:49:06;;;;;;;32.72;15.55;;;-8.50;99.90;;;;;;5055461;28;20040;-76
2022/12/14 06:51:38;;;;;;;34.97;16.63;;;-8.50;99.90;;;;;;5055521;28;20046;-76
2022/12/14 06:54:04;;;;;;;37.45;17.77;;;-8.50;99.90;;;;;;5053746;28;20067;-76
2022/12/14 06:56:30;;;;;;;36.78;18.45;;;-8.50;99.90;;;;;;5069360;28;20109;-76
2022/12/14 06:58:56;;;;;;;38.28;18.33;;;-8.50;99.90;;;;;;5035966;28;20041;-76
2022/12/14 07:01:23;;;;;;;35.90;15.82;;;-8.50;99.90;;;;;;5054830;28;20083;-76
2022/12/14 07:03:55;;;;;;;37.83;19.48;;;-8.50;99.90;;;;;;5059905;28;20036;-76
2022/12/14 07:06:22;;;;;;;38.00;19.20;;;-8.60;99.90;;;;;;5063828;28;20497;-76
2022/12/14 07:08:48;;;;;;;42.90;18.30;;;-8.60;99.90;;;;;;5053892;28;20044;-76
2022/12/14 07:11:15;;;;;;;40.58;18.55;;;-8.60;99.90;;;;;;5052734;28;20033;-77
2022/12/14 07:13:41;;;;;;;35.30;18.08;;;-8.60;99.90;;;;;;5050789;28;20127;-76
2022/12/14 07:16:12;;;;;;;40.92;18.42;;;-8.70;99.90;;;;;;5047619;28;20280;-77
2022/12/14 07:18:38;;;;;;;35.50;16.45;;;-8.70;99.90;;;;;;5047322;28;20048;-76
2022/12/14 07:21:09;;;;;;;34.20;17.95;;;-8.70;99.90;;;;;;5061001;28;20028;-77
2022/12/14 07:23:36;;;;;;;34.40;17.70;;;-8.80;99.90;;;;;;5066959;28;20072;-77
2022/12/14 07:26:03;;;;;;;30.70;16.45;;;-8.80;99.90;;;;;;5055014;28;20358;-77
2022/12/14 07:28:30;;;;;;;41.85;20.75;;;-8.70;99.90;;;;;;5055089;28;20044;-77
2022/12/14 07:30:57;;;;;;;45.17;20.52;;;-8.80;99.90;;;;;;5059468;28;20052;-79
2022/12/14 07:33:23;;;;;;;38.05;20.63;;;-8.70;99.90;;;;;;5060748;28;20111;-77
2022/12/14 07:35:49;;;;;;;45.03;21.02;;;-8.70;99.90;;;;;;5062639;28;20043;-77
2022/12/14 07:38:16;;;;;;;36.45;17.88;;;-8.70;99.90;;;;;;5069886;28;20039;-77
2022/12/14 07:40:42;;;;;;;36.17;16.52;;;-8.70;99.90;;;;;;5078875;28;20032;-78
2022/12/14 07:43:09;;;;;;;39.55;18.67;;;-8.80;99.90;;;;;;5077514;28;20039;-78
2022/12/14 07:45:35;;;;;;;45.40;18.83;;;-8.80;99.90;;;;;;5052555;28;20534;-77
2022/12/14 07:48:01;;;;;;;38.22;18.48;;;-8.80;99.90;;;;;;5052428;28;20062;-78
2022/12/14 07:50:27;;;;;;;39.90;19.27;;;-8.80;99.90;;;;;;5064045;28;20040;-79
2022/12/14 07:52:52;;;;;;;38.05;18.42;;;-8.80;99.90;;;;;;5062683;28;20037;-78
2022/12/14 07:55:19;;;;;;;37.67;17.80;;;-8.80;99.90;;;;;;5053397;28;20064;-79
2022/12/14 07:57:45;;;;;;;36.58;17.48;;;-8.80;99.90;;;;;;5062578;28;20044;-79
2022/12/14 08:00:20;;;;;;;40.63;18.00;;;-8.80;99.90;;;;;;5068190;28;20048;-79
2022/12/14 08:02:45;;;;;;;40.65;16.42;;;-8.80;99.90;;;;;;5056566;28;20130;-79
2022/12/14 08:05:11;;;;;;;38.33;17.88;;;-8.80;99.90;;;;;;5058554;28;20040;-80
2022/12/14 08:07:37;;;;;;;38.13;16.52;;;-8.80;99.90;;;;;;5059215;28;20040;-77
2022/12/14 08:10:05;;;;;;;33.13;16.70;;;-8.80;99.90;;;;;;5063444;28;20063;-78
2022/12/14 08:12:31;;;;;;;38.35;16.77;;;-8.80;99.90;;;;;;5070703;28;20104;-78
2022/12/14 08:14:57;;;;;;;38.67;17.27;;;-8.80;99.90;;;;;;5056580;28;20061;-78
2022/12/14 08:17:23;;;;;;;31.88;16.25;;;-8.70;99.90;;;;;;5067362;28;20032;-78
2022/12/14 08:19:50;;;;;;;37.08;18.05;;;-8.70;99.90;;;;;;5062807;28;20039;-78
2022/12/14 08:22:19;;;;;;;33.60;16.30;;;-8.70;99.90;;;;;;5060814;28;20102;-78
2022/12/14 08:24:45;;;;;;;37.47;17.33;;;-8.70;99.90;;;;;;5056562;28;20040;-78
2022/12/14 08:27:11;;;;;;;40.33;19.65;;;-8.70;99.90;;;;;;5071161;28;20044;-78
2022/12/14 08:29:41;;;;;;;35.38;19.15;;;-8.70;99.90;;;;;;5071828;28;20114;-78
2022/12/14 08:32:07;;;;;;;45.90;19.60;;;-8.60;99.90;;;;;;5080640;28;20105;-78
2022/12/14 08:34:33;;;;;;;45.42;18.92;;;-8.60;99.90;;;;;;5068586;28;20029;-78
2022/12/14 08:36:59;;;;;;;40.58;18.05;;;-8.50;99.90;;;;;;5064936;28;20508;-78
2022/12/14 08:39:24;;;;;;;44.88;20.23;;;-8.50;99.90;;;;;;5066029;28;20051;-78
2022/12/14 08:41:50;;;;;;;41.60;18.25;;;-8.50;99.90;;;;;;5074058;28;20439;-78
2022/12/14 08:44:16;;;;;;;42.22;18.45;;;-8.40;99.90;;;;;;5068075;28;20032;-78
2022/12/14 08:46:42;;;;;;;37.50;18.23;;;-8.40;99.90;;;;;;5063039;28;20048;-78
2022/12/14 08:49:07;;;;;;;43.45;17.63;;;-8.30;99.90;;;;;;5065101;28;20032;-78
2022/12/14 08:51:36;;;;;;;43.80;18.20;;;-8.20;99.90;;;;;;5074178;28;20079;-78
2022/12/14 08:54:02;;;;;;;34.25;17.17;;;-8.10;99.90;;;;;;5069879;28;20132;-78
2022/12/14 08:56:28;;;;;;;36.13;17.77;;;-8.00;99.90;;;;;;5049414;28;20127;-78
2022/12/14 08:58:55;;;;;;;36.30;17.83;;;-7.90;99.90;;;;;;5064341;28;20044;-78
2022/12/14 09:01:23;;;;;;;43.28;18.52;;;-7.80;99.90;;;;;;5073805;28;20040;-78
2022/12/14 09:03:49;;;;;;;37.58;18.33;;;-7.70;99.90;;;;;;5076504;28;20119;-78
2022/12/14 09:06:19;;;;;;;36.30;18.08;;;-7.60;99.90;;;;;;5059807;28;20131;-78
2022/12/14 09:08:45;;;;;;;41.85;18.23;;;-7.50;99.90;;;;;;5064011;28;20071;-78
2022/12/14 09:11:15;;;;;;;40.85;18.83;;;-7.50;99.90;;;;;;5074700;28;20035;-78
2022/12/14 09:13:41;;;;;;;42.55;19.83;;;-7.40;99.90;;;;;;5092258;28;20043;-78
2022/12/14 09:16:11;;;;;;;42.60;18.42;;;-7.30;99.90;;;;;;5061526;28;20483;-78
2022/12/14 09:18:40;;;;;;;44.40;18.98;;;-7.20;99.90;;;;;;5062988;28;20068;-79
2022/12/14 09:21:06;;;;;;;39.25;17.83;;;-7.10;99.90;;;;;;5073163;28;20089;-79
2022/12/14 09:23:37;;;;;;;38.80;20.08;;;-7.00;99.90;;;;;;5090740;28;20048;-79
2022/12/14 09:26:10;;;;;;;40.95;19.52;;;-6.90;99.90;;;;;;5063180;28;20044;-79
2022/12/14 09:28:41;;;;;;;46.30;19.05;;;-6.90;99.90;;;;;;5070900;28;20051;-79
2022/12/14 09:31:11;;;;;;;38.30;17.52;;;-6.70;99.90;;;;;;5073826;28;20048;-79
2022/12/14 09:33:37;;;;;;;39.95;18.50;;;-6.60;99.90;;;;;;5077594;28;20082;-79
2022/12/14 09:36:05;;;;;;;44.60;18.33;;;-6.50;99.90;;;;;;5059427;28;20526;-79
2022/12/14 09:38:33;;;;;;;45.78;19.45;;;-6.40;99.90;;;;;;5064825;28;20041;-76
2022/12/14 09:41:02;;;;;;;43.60;19.48;;;-6.30;99.90;;;;;;5076865;28;20039;-77
2022/12/14 09:43:39;;;;;;;37.75;17.02;;;-6.10;99.90;;;;;;5076734;28;20047;-77
2022/12/14 09:46:31;;;;;;;43.53;18.42;;;-6.00;99.90;;;;;;5060293;28;20044;-77
2022/12/14 09:48:57;;;;;;;42.20;20.17;;;-5.80;99.90;;;;;;5060595;28;20036;-77
2022/12/14 09:51:33;;;;;;;47.38;19.20;;;-5.70;99.90;;;;;;5071594;28;20282;-77
2022/12/14 09:54:05;;;;;;;50.10;20.27;;;-5.50;99.90;;;;;;5074173;28;20047;-77
2022/12/14 09:56:32;;;;;;;44.00;20.75;;;-5.50;99.90;;;;;;5065088;28;20041;-77
2022/12/14 09:59:00;;;;;;;41.33;20.15;;;-5.40;99.90;;;;;;5076407;28;20630;-77
2022/12/14 10:01:45;;;;;;;41.38;19.73;;;-5.40;99.90;;;;;;5076872;28;20447;-77
2022/12/14 10:04:22;;;;;;;42.95;19.65;;;-5.30;99.90;;;;;;5073480;28;20040;-77
2022/12/14 10:06:59;;;;;;;35.15;17.65;;;-5.20;99.90;;;;;;5067076;28;20037;-77
2022/12/14 10:09:41;;;;;;;41.75;20.73;;;-5.20;99.90;;;;;;5076355;28;20485;-77
2022/12/14 10:12:33;;;;;;;49.13;19.55;;;-5.10;99.90;;;;;;5076484;28;20047;-80
2022/12/14 10:15:23;;;;;;;42.53;19.08;;;-5.00;99.90;;;;;;5068707;28;20047;-77
2022/12/14 10:18:10;;;;;;;46.42;19.83;;;-5.00;99.90;;;;;;5061738;28;20047;-78
2022/12/14 10:20:58;;;;;;;38.55;19.27;;;-4.90;99.90;;;;;;5069846;28;20039;-78
2022/12/14 10:23:26;;;;;;;29.42;16.25;;;-4.90;99.90;;;;;;5062577;28;20036;-78
2022/12/14 10:26:07;;;;;;;43.72;19.75;;;-4.80;99.90;;;;;;5068941;28;20111;-78
2022/12/14 10:28:47;;;;;;;41.78;18.90;;;-4.70;99.90;;;;;;5083152;28;20043;-78
2022/12/14 10:31:26;;;;;;;40.35;18.88;;;-4.70;99.90;;;;;;5079606;28;20052;-78
2022/12/14 10:33:56;;;;;;;41.08;19.92;;;-4.60;99.90;;;;;;5078837;28;20039;-78
2022/12/14 10:36:29;;;;;;;42.22;20.85;;;-4.50;99.90;;;;;;5068687;28;20040;-78
2022/12/14 10:39:06;;;;;;;37.70;19.17;;;-4.50;99.90;;;;;;5055315;28;20036;-78
2022/12/14 10:41:41;;;;;;;40.28;18.98;;;-4.40;99.90;;;;;;5038075;28;20040;-78
2022/12/14 10:44:37;;;;;;;35.42;16.85;;;-4.30;99.90;;;;;;5054082;28;20112;-78
2022/12/14 10:47:33;;;;;;;36.97;16.42;;;-4.20;99.90;;;;;;5058882;28;20040;-78
2022/12/14 10:50:18;;;;;;;36.78;17.65;;;-4.10;99.90;;;;;;5074845;28;20059;-78
2022/12/14 10:52:47;;;;;;;36.30;17.83;;;-4.10;99.90;;;;;;5074830;28;20041;-78
2022/12/14 10:55:31;;;;;;;36.75;18.55;;;-4.00;99.90;;;;;;5072825;28;20036;-78
2022/12/14 10:57:57;;;;;;;37.88;18.63;;;-3.90;99.90;;;;;;5078080;28;20119;-78
2022/12/14 11:00:22;;;;;;;34.97;18.23;;;-3.90;99.90;;;;;;5077124;28;20076;-78
2022/12/14 11:02:53;;;;;;;36.60;17.50;;;-3.80;99.90;;;;;;5075402;28;20406;-78
2022/12/14 11:05:39;;;;;;;39.40;17.88;;;-3.70;99.90;;;;;;5065495;28;20041;-78
2022/12/14 11:08:06;;;;;;;33.88;16.20;;;-3.70;99.90;;;;;;5053621;28;20036;-78
2022/12/14 11:10:34;;;;;;;38.20;17.75;;;-3.60;99.90;;;;;;5037067;28;20045;-78
2022/12/14 11:13:05;;;;;;;36.05;17.50;;;-3.60;99.90;;;;;;5038166;28;20092;-78
2022/12/14 11:15:36;;;;;;;34.40;17.20;;;-3.50;99.90;;;;;;5065109;28;20044;-79
2022/12/14 11:18:25;;;;;;;39.95;17.05;;;-3.50;99.90;;;;;;5076027;28;20079;-78
2022/12/14 11:20:56;;;;;;;33.63;17.45;;;-3.30;99.90;;;;;;5076777;28;20066;-77
2022/12/14 11:23:26;;;;;;;33.75;16.90;;;-3.10;99.90;;;;;;5070249;28;20060;-78
2022/12/14 11:25:59;;;;;;;36.25;17.35;;;-2.90;99.90;;;;;;5062917;28;20043;-78
2022/12/14 11:28:28;;;;;;;34.70;16.60;;;-2.70;99.90;;;;;;5059341;28;20084;-77
2022/12/14 11:31:02;;;;;;;34.20;17.25;;;-2.60;99.90;;;;;;5066664;28;20068;-78
2022/12/14 11:33:46;;;;;;;32.45;16.52;;;-2.50;99.90;;;;;;5068631;28;20044;-77
2022/12/14 11:36:28;;;;;;;34.25;16.55;;;-2.40;99.90;;;;;;5057939;28;20067;-78
2022/12/14 11:39:17;;;;;;;33.70;16.85;;;-2.20;99.90;;;;;;5055183;28;20075;-78
2022/12/14 11:42:01;;;;;;;35.22;25.67;;;-2.10;99.90;;;;;;5055707;28;20044;-78
2022/12/14 11:44:34;;;;;;;31.92;24.45;;;-1.90;99.90;;;;;;5055526;28;20037;-78
2022/12/14 11:47:01;;;;;;;27.50;13.38;;;-1.60;99.90;;;;;;5062689;28;20032;-78
2022/12/14 11:49:42;;;;;;;26.10;13.90;;;-1.50;99.90;;;;;;5071933;28;20108;-78
2022/12/14 11:52:21;;;;;;;24.35;13.55;;;-1.30;99.90;;;;;;5052346;28;20105;-76
2022/12/14 11:55:10;;;;;;;31.52;23.73;;;-1.10;99.90;;;;;;5052906;28;20075;-78
2022/12/14 11:57:59;;;;;;;25.13;19.52;;;-0.80;99.90;;;;;;5053412;28;20596;-78
2022/12/14 12:00:38;;;;;;;28.48;22.05;;;-0.60;99.90;;;;;;5068382;28;20040;-79
2022/12/14 12:03:12;;;;;;;33.30;24.17;;;-0.50;99.90;;;;;;5040135;28;20479;-78
2022/12/14 12:05:43;;;;;;;31.13;21.58;;;-0.30;99.90;;;;;;5050788;28;20123;-79
2022/12/14 12:08:37;;;;;;;28.58;22.20;;;-0.20;99.90;;;;;;5053662;28;20490;-79
2022/12/14 12:11:26;;;;;;;30.08;21.60;;;0.00;99.90;;;;;;5042282;28;20058;-79
2022/12/14 12:14:02;;;;;;;29.50;21.35;;;0.00;99.90;;;;;;5053378;28;20120;-79
2022/12/14 12:16:31;;;;;;;27.15;19.67;;;0.10;99.90;;;;;;5053677;28;20040;-79
2022/12/14 12:19:31;;;;;;;32.35;23.73;;;0.20;99.90;;;;;;5048660;28;20037;-79
2022/12/14 12:22:00;;;;;;;31.75;23.48;;;0.20;99.90;;;;;;5063002;28;20064;-79
2022/12/14 12:24:30;;;;;;;33.05;22.88;;;0.30;99.90;;;;;;5050688;28;20032;-79
2022/12/14 12:27:02;;;;;;;32.15;23.17;;;0.30;99.90;;;;;;5053849;28;20040;-78
2022/12/14 12:29:52;;;;;;;29.75;23.48;;;0.40;99.90;;;;;;5054999;28;20041;-82
2022/12/14 12:32:31;;;;;;;30.05;23.75;;;0.30;99.90;;;;;;5053156;28;20044;-80
2022/12/14 12:35:14;;;;;;;31.20;22.45;;;0.30;99.90;;;;;;5034818;28;20511;-80
2022/12/14 12:37:47;;;;;;;29.40;22.27;;;0.30;99.90;;;;;;5043293;28;20043;-78
2022/12/14 12:40:37;;;;;;;31.55;23.15;;;0.30;99.90;;;;;;5050429;28;20040;-81
2022/12/14 12:43:12;;;;;;;29.35;21.83;;;0.30;99.90;;;;;;5064723;28;20033;-78
2022/12/14 12:45:47;;;;;;;30.10;21.67;;;0.20;99.90;;;;;;5054658;28;20045;-79
2022/12/14 12:48:55;;;;;;;26.98;21.63;;;0.10;99.90;;;;;;5054236;28;20041;-78
2022/12/14 12:51:32;;;;;;;29.60;20.90;;;0.00;99.90;;;;;;5054995;28;20055;-78
2022/12/14 12:54:31;;;;;;;27.58;20.20;;;-0.10;99.90;;;;;;5049154;28;20435;-80
2022/12/14 12:57:08;;;;;;;27.77;20.85;;;-0.10;99.90;;;;;;5003573;28;20072;-81
2022/12/14 13:02:47;;;;;;;27.38;21.08;;;-0.30;99.90;;;;;;5074133;28;20043;-80
2022/12/14 13:05:32;;;;;;;29.77;22.20;;;-0.50;99.90;;;;;;5058338;28;20044;-80
2022/12/14 13:08:26;;;;;;;29.42;21.50;;;-0.50;99.90;;;;;;5059750;28;20044;-80
2022/12/14 13:11:26;;;;;;;28.73;22.35;;;-0.50;99.90;;;;;;5025259;28;20049;-80
2022/12/14 13:14:16;;;;;;;29.58;22.27;;;-0.60;99.90;;;;;;5063833;28;20044;-80